Time;durP1;ratioP1;P1;durP2;ratioP2;P2;SDS_P1;SDS_P2;PMS_P1;PMS_P2;Temp;Humidity;BMP_temperature;BMP_pressure;BME280_temperature;BME280_humidity;BME280_pressure;Samples;Min_cycle;Max_cycle;Signal;HPM_P1;HPM_P2
2021/09/11 00:00:26;;;;;;;4.07;3.77;;;17.40;99.90;;;;;;479138;246;28862;-71
2021/09/11 00:02:27;;;;;;;4.10;3.80;;;17.40;99.90;;;;;;479124;246;28882;-71
2021/09/11 00:04:28;;;;;;;4.23;3.93;;;17.40;99.90;;;;;;485691;244;28765;-72
2021/09/11 00:06:29;;;;;;;5.10;3.70;;;17.30;99.90;;;;;;497663;238;28825;-72
2021/09/11 00:08:31;;;;;;;3.80;3.50;;;;;;;;;;497988;238;28790;-72
2021/09/11 00:10:33;;;;;;;3.87;3.57;;;17.40;99.90;;;;;;495032;238;27346;-70
2021/09/11 00:12:35;;;;;;;4.40;4.00;;;17.40;99.90;;;;;;478734;239;28996;-72
2021/09/11 00:14:36;;;;;;;3.57;3.27;;;;;;;;;;469944;251;28887;-70
2021/09/11 00:16:37;;;;;;;4.10;3.80;;;17.40;99.90;;;;;;469463;251;27509;-72
2021/09/11 00:18:38;;;;;;;3.40;3.10;;;17.40;99.90;;;;;;469431;251;28852;-72
2021/09/11 00:20:41;;;;;;;3.83;3.53;;;;;;;;;;473250;251;29896;-71
2021/09/11 00:22:42;;;;;;;7.43;3.63;;;17.30;99.90;;;;;;473264;250;28040;-70
2021/09/11 00:24:45;;;;;;;4.37;4.07;;;;;;;;;;472085;251;29270;-70
2021/09/11 00:26:47;;;;;;;3.97;3.67;;;17.30;99.90;;;;;;467814;251;26341;-70
2021/09/11 00:28:48;;;;;;;3.60;3.30;;;17.30;99.90;;;;;;472996;249;28836;-69
2021/09/11 00:30:49;;;;;;;4.47;4.07;;;17.30;99.90;;;;;;471802;251;28911;-70
2021/09/11 00:32:50;;;;;;;4.13;3.80;;;17.30;99.90;;;;;;471877;249;29297;-72
2021/09/11 00:34:52;;;;;;;4.37;3.40;;;17.30;99.90;;;;;;472555;249;29448;-71
2021/09/11 00:36:53;;;;;;;3.90;3.60;;;17.20;99.90;;;;;;472242;247;29329;-72
2021/09/11 00:38:54;;;;;;;3.63;3.33;;;17.20;99.90;;;;;;472018;251;28887;-69
2021/09/11 00:40:55;;;;;;;4.13;3.83;;;17.20;99.90;;;;;;472071;249;28803;-70
2021/09/11 00:42:57;;;;;;;3.60;3.30;;;17.20;99.90;;;;;;470065;251;28911;-69
2021/09/11 00:44:58;;;;;;;5.10;4.20;;;17.20;99.90;;;;;;470157;252;28840;-69
2021/09/11 00:46:59;;;;;;;4.07;3.67;;;17.20;99.90;;;;;;471977;251;28798;-69
2021/09/11 00:49:00;;;;;;;5.17;3.73;;;17.20;99.90;;;;;;471255;251;28874;-69
2021/09/11 00:51:02;;;;;;;4.10;3.67;;;17.20;99.90;;;;;;471941;249;28851;-69
2021/09/11 00:53:03;;;;;;;4.47;4.07;;;17.20;99.90;;;;;;471199;238;28927;-71
2021/09/11 00:55:04;;;;;;;4.70;4.03;;;17.20;99.90;;;;;;472849;251;28857;-71
2021/09/11 00:57:05;;;;;;;3.63;3.33;;;17.10;99.90;;;;;;475642;246;29260;-69
2021/09/11 00:59:07;;;;;;;3.87;3.47;;;17.20;99.90;;;;;;481035;245;29382;-71
2021/09/11 01:01:08;;;;;;;4.20;3.83;;;17.20;99.90;;;;;;474131;249;29225;-72
2021/09/11 01:03:28;;;;;;;3.70;3.40;;;17.20;99.90;;;;;;492677;235;29216;-72
2021/09/11 01:05:30;;;;;;;3.20;2.97;;;17.20;99.90;;;;;;491476;242;29299;-71
2021/09/11 01:07:31;;;;;;;4.80;3.80;;;17.10;99.90;;;;;;478185;249;28825;-72
2021/09/11 01:09:32;;;;;;;3.87;3.57;;;17.10;99.90;;;;;;478108;249;28990;-72
2021/09/11 01:11:33;;;;;;;3.87;3.57;;;17.10;99.90;;;;;;478128;244;28944;-71
2021/09/11 01:13:35;;;;;;;3.40;3.20;;;17.20;99.90;;;;;;478073;248;28910;-71
2021/09/11 01:15:37;;;;;;;3.77;3.47;;;17.10;99.90;;;;;;479811;244;28809;-71
2021/09/11 01:17:37;;;;;;;3.63;3.33;;;17.10;99.90;;;;;;481778;244;28985;-70
2021/09/11 01:19:38;;;;;;;3.50;3.20;;;17.20;99.90;;;;;;478894;244;28800;-70
2021/09/11 01:21:40;;;;;;;4.03;3.40;;;17.10;99.90;;;;;;478142;249;28879;-70
2021/09/11 01:23:41;;;;;;;4.17;3.77;;;17.20;99.90;;;;;;478055;249;29012;-71
2021/09/11 01:25:42;;;;;;;3.63;3.30;;;17.20;99.90;;;;;;483387;244;29267;-71
2021/09/11 01:27:44;;;;;;;3.93;3.60;;;17.20;99.90;;;;;;483442;245;29348;-71
2021/09/11 01:29:45;;;;;;;4.17;3.77;;;17.10;99.90;;;;;;483454;244;31268;-72
2021/09/11 01:31:46;;;;;;;4.47;3.83;;;17.10;99.90;;;;;;478190;249;28863;-72
2021/09/11 01:33:47;;;;;;;3.90;3.60;;;17.10;99.90;;;;;;478154;249;28833;-71
2021/09/11 01:35:49;;;;;;;3.50;3.13;;;17.10;99.90;;;;;;481265;245;28843;-72
2021/09/11 01:37:50;;;;;;;3.83;3.43;;;17.10;99.90;;;;;;485249;245;28949;-72
2021/09/11 01:39:51;;;;;;;4.23;3.93;;;17.10;99.90;;;;;;485167;245;28890;-72
2021/09/11 01:41:52;;;;;;;4.13;3.57;;;17.10;99.90;;;;;;480900;244;28824;-72
2021/09/11 01:43:54;;;;;;;4.30;3.97;;;17.10;99.90;;;;;;480797;245;28925;-71
2021/09/11 01:45:55;;;;;;;4.37;3.97;;;17.10;99.90;;;;;;484376;244;28801;-72
2021/09/11 01:47:56;;;;;;;4.00;3.70;;;17.10;99.90;;;;;;485484;244;28851;-72
2021/09/11 01:49:57;;;;;;;4.10;3.80;;;17.10;99.90;;;;;;486384;244;30132;-71
2021/09/11 01:51:59;;;;;;;3.87;3.57;;;17.10;99.90;;;;;;483742;244;29324;-70
2021/09/11 01:54:00;;;;;;;4.07;3.50;;;17.10;99.90;;;;;;486501;244;29210;-70
2021/09/11 01:56:01;;;;;;;4.33;3.93;;;17.10;99.90;;;;;;486329;244;28957;-70
2021/09/11 01:58:02;;;;;;;5.10;4.70;;;17.10;99.90;;;;;;486505;244;28945;-70
2021/09/11 02:00:04;;;;;;;4.87;3.83;;;17.00;99.90;;;;;;486252;244;28823;-70
2021/09/11 02:02:05;;;;;;;4.70;4.13;;;17.00;99.90;;;;;;486434;244;28918;-70
2021/09/11 02:04:06;;;;;;;4.63;4.23;;;17.00;99.90;;;;;;486445;244;28874;-72
2021/09/11 02:06:07;;;;;;;4.40;4.00;;;17.00;99.90;;;;;;480841;245;28818;-72
2021/09/11 02:08:09;;;;;;;4.40;4.00;;;17.00;99.90;;;;;;478565;245;28818;-72
2021/09/11 02:10:10;;;;;;;3.93;3.60;;;17.00;99.90;;;;;;484593;244;28904;-72
2021/09/11 02:12:11;;;;;;;4.83;4.37;;;17.00;99.90;;;;;;482304;240;28944;-71
2021/09/11 02:14:12;;;;;;;3.87;3.47;;;17.10;99.90;;;;;;474664;250;29328;-72
2021/09/11 02:16:14;;;;;;;4.33;3.93;;;17.10;99.90;;;;;;477785;245;29218;-70
2021/09/11 02:18:15;;;;;;;3.77;3.47;;;17.00;99.90;;;;;;477613;245;29356;-70
2021/09/11 02:20:16;;;;;;;4.40;4.00;;;17.10;99.90;;;;;;478646;245;29296;-70
2021/09/11 02:22:17;;;;;;;4.17;3.83;;;17.00;99.90;;;;;;482233;246;28695;-70
2021/09/11 02:24:19;;;;;;;4.70;4.13;;;17.00;99.90;;;;;;479743;245;28794;-71
2021/09/11 02:26:20;;;;;;;4.40;4.00;;;17.00;99.90;;;;;;490941;242;28868;-72
2021/09/11 02:28:21;;;;;;;4.50;4.10;;;17.00;99.90;;;;;;481949;242;28675;-69
2021/09/11 02:30:22;;;;;;;5.90;4.60;;;17.00;99.90;;;;;;473875;246;29011;-69
2021/09/11 02:32:24;;;;;;;5.20;4.70;;;17.00;99.90;;;;;;472057;241;28755;-72
2021/09/11 02:34:25;;;;;;;4.10;3.80;;;17.00;99.90;;;;;;471191;249;28789;-70
2021/09/11 02:36:26;;;;;;;4.60;4.20;;;17.00;99.90;;;;;;475991;249;28895;-70
2021/09/11 02:38:27;;;;;;;4.87;4.47;;;17.00;99.90;;;;;;476024;249;29464;-69
2021/09/11 02:40:29;;;;;;;5.77;4.90;;;16.90;99.90;;;;;;475802;249;29326;-70
2021/09/11 02:42:30;;;;;;;4.80;4.40;;;16.90;99.90;;;;;;476039;249;29503;-69
2021/09/11 02:44:31;;;;;;;4.07;3.77;;;17.00;99.90;;;;;;476044;249;29417;-71
2021/09/11 02:46:32;;;;;;;5.07;4.57;;;17.00;99.90;;;;;;476777;249;28846;-72
2021/09/11 02:48:34;;;;;;;5.10;4.60;;;17.00;99.90;;;;;;476114;249;28883;-72
2021/09/11 02:50:35;;;;;;;5.13;4.63;;;17.00;99.90;;;;;;476002;249;28935;-70
2021/09/11 02:52:36;;;;;;;4.63;4.20;;;17.00;99.90;;;;;;471658;249;28781;-69
2021/09/11 02:54:37;;;;;;;5.23;4.10;;;17.00;99.90;;;;;;467029;254;28869;-72
2021/09/11 02:56:39;;;;;;;5.60;4.40;;;16.90;99.90;;;;;;472342;249;28748;-71
2021/09/11 02:58:40;;;;;;;5.73;5.17;;;16.90;99.90;;;;;;476755;249;28963;-71
2021/09/11 03:00:41;;;;;;;5.67;4.47;;;16.90;99.90;;;;;;476851;249;28900;-72
2021/09/11 03:02:42;;;;;;;5.63;5.13;;;16.80;99.90;;;;;;476361;249;29340;-70
2021/09/11 03:04:44;;;;;;;5.60;5.00;;;16.90;99.90;;;;;;467027;254;29344;-72
2021/09/11 03:06:45;;;;;;;5.67;4.80;;;16.90;99.90;;;;;;467014;254;29315;-72
2021/09/11 03:08:46;;;;;;;4.80;4.20;;;16.90;99.90;;;;;;466979;254;29336;-72
2021/09/11 03:10:48;;;;;;;5.00;4.53;;;16.90;99.90;;;;;;474088;249;28882;-71
2021/09/11 03:12:49;;;;;;;5.93;5.43;;;16.90;99.90;;;;;;468959;249;28789;-69
2021/09/11 03:14:50;;;;;;;5.23;4.73;;;16.90;99.90;;;;;;467163;254;28933;-69
2021/09/11 03:16:51;;;;;;;6.93;4.23;;;16.90;99.90;;;;;;475542;250;28837;-72
2021/09/11 03:18:52;;;;;;;6.33;4.87;;;16.90;99.90;;;;;;469705;249;28866;-71
2021/09/11 03:20:54;;;;;;;7.07;5.23;;;16.90;99.90;;;;;;471184;250;28764;-70
2021/09/11 03:22:55;;;;;;;6.20;5.50;;;16.90;99.90;;;;;;476029;249;28912;-72
2021/09/11 03:24:56;;;;;;;6.80;5.73;;;16.80;99.90;;;;;;476051;249;28845;-72
2021/09/11 03:26:57;;;;;;;5.70;5.10;;;16.80;99.90;;;;;;459627;258;28961;-71
2021/09/11 03:28:59;;;;;;;4.73;4.33;;;16.90;99.90;;;;;;459632;259;29431;-71
2021/09/11 03:31:00;;;;;;;6.47;5.77;;;16.90;99.90;;;;;;468601;250;29371;-72
2021/09/11 03:33:01;;;;;;;5.43;4.90;;;16.80;99.90;;;;;;476018;249;29445;-72
2021/09/11 03:35:02;;;;;;;5.63;5.13;;;16.80;99.90;;;;;;476014;249;29034;-72
2021/09/11 03:37:04;;;;;;;6.87;5.40;;;16.80;99.90;;;;;;476115;249;28818;-72
2021/09/11 03:39:05;;;;;;;5.47;4.87;;;16.80;99.90;;;;;;476042;249;28929;-71
2021/09/11 03:41:06;;;;;;;5.50;5.00;;;16.80;99.90;;;;;;475948;249;28967;-71
2021/09/11 03:43:07;;;;;;;5.80;5.20;;;16.80;99.90;;;;;;476016;249;28901;-72
2021/09/11 03:45:09;;;;;;;8.50;5.30;;;16.80;99.90;;;;;;476009;249;28987;-69
2021/09/11 03:47:10;;;;;;;7.53;5.10;;;16.90;99.90;;;;;;475988;249;28933;-70
2021/09/11 03:49:11;;;;;;;5.80;5.20;;;16.80;99.90;;;;;;475924;249;28944;-70
2021/09/11 03:51:12;;;;;;;5.50;5.00;;;16.80;99.90;;;;;;471817;249;28845;-70
2021/09/11 03:53:14;;;;;;;5.27;4.60;;;16.80;99.90;;;;;;475763;249;29275;-70
2021/09/11 03:55:15;;;;;;;5.90;5.40;;;16.80;99.90;;;;;;470760;249;29983;-70
2021/09/11 03:57:16;;;;;;;6.10;4.97;;;16.80;99.90;;;;;;466978;254;29270;-70
2021/09/11 03:59:17;;;;;;;6.17;5.27;;;16.90;99.90;;;;;;467004;254;28830;-70
2021/09/11 04:01:19;;;;;;;7.27;5.10;;;16.80;99.90;;;;;;473797;249;28817;-70
2021/09/11 04:03:20;;;;;;;6.80;5.03;;;16.80;99.90;;;;;;476774;249;28858;-70
2021/09/11 04:05:21;;;;;;;6.40;5.50;;;16.80;99.90;;;;;;476704;249;28953;-70
2021/09/11 04:07:22;;;;;;;6.50;5.50;;;16.80;99.90;;;;;;476806;249;28861;-70
2021/09/11 04:09:24;;;;;;;5.53;4.97;;;16.80;99.90;;;;;;476782;249;28868;-70
2021/09/11 04:11:25;;;;;;;8.40;5.80;;;16.70;99.90;;;;;;476038;249;28956;-70
2021/09/11 04:13:26;;;;;;;5.40;4.90;;;16.70;99.90;;;;;;476000;249;28887;-70
2021/09/11 04:15:27;;;;;;;5.57;4.97;;;16.80;99.90;;;;;;476015;245;28905;-71
2021/09/11 04:17:29;;;;;;;6.50;4.93;;;16.70;99.90;;;;;;467703;249;30049;-70
2021/09/11 04:19:30;;;;;;;8.77;6.07;;;16.70;99.90;;;;;;467277;254;29458;-70
2021/09/11 04:21:31;;;;;;;6.80;5.80;;;16.70;99.90;;;;;;469786;249;29305;-72
2021/09/11 04:23:32;;;;;;;6.23;5.13;;;16.70;99.90;;;;;;476016;249;29053;-72
2021/09/11 04:25:34;;;;;;;6.20;5.60;;;16.70;99.90;;;;;;475804;249;28945;-72
2021/09/11 04:27:35;;;;;;;6.30;5.13;;;16.70;99.90;;;;;;475693;249;28867;-70
2021/09/11 04:29:36;;;;;;;5.73;5.23;;;16.70;99.90;;;;;;476017;249;28839;-70
2021/09/11 04:31:37;;;;;;;5.23;4.73;;;16.70;99.90;;;;;;476026;243;28854;-71
2021/09/11 04:33:39;;;;;;;5.17;4.77;;;16.70;99.90;;;;;;489771;243;28717;-71
2021/09/11 04:35:40;;;;;;;5.77;5.10;;;16.70;99.90;;;;;;489852;242;28870;-72
2021/09/11 04:37:41;;;;;;;6.53;5.20;;;16.70;99.90;;;;;;483791;245;28820;-71
2021/09/11 04:39:42;;;;;;;5.77;5.17;;;16.70;99.90;;;;;;480494;247;28919;-72
2021/09/11 04:41:44;;;;;;;5.97;5.37;;;16.70;99.90;;;;;;481701;238;29248;-70
2021/09/11 04:43:45;;;;;;;5.73;5.13;;;16.70;99.90;;;;;;488040;244;29250;-72
2021/09/11 04:45:46;;;;;;;5.87;4.93;;;16.70;99.90;;;;;;490968;240;29254;-72
2021/09/11 04:47:47;;;;;;;7.70;5.87;;;16.70;99.90;;;;;;495135;240;29994;-71
2021/09/11 04:49:49;;;;;;;5.57;5.07;;;16.70;99.90;;;;;;495144;240;28746;-72
2021/09/11 04:51:50;;;;;;;6.10;5.50;;;16.70;99.90;;;;;;495127;240;28889;-72
2021/09/11 04:53:52;;;;;;;5.30;4.80;;;16.70;99.90;;;;;;495129;240;28765;-71
2021/09/11 04:55:55;;;;;;;4.87;4.47;;;16.70;99.90;;;;;;495064;240;28872;-72
2021/09/11 04:57:54;;;;;;;5.33;4.83;;;16.70;99.90;;;;;;494863;240;28903;-71
2021/09/11 04:59:55;;;;;;;6.10;5.50;;;16.70;99.90;;;;;;495119;240;28896;-71
2021/09/11 05:01:57;;;;;;;6.73;5.97;;;16.70;99.90;;;;;;478123;241;28890;-70
2021/09/11 05:03:58;;;;;;;6.33;5.73;;;16.70;99.90;;;;;;465590;255;28845;-70
2021/09/11 05:05:59;;;;;;;5.57;5.07;;;16.60;99.90;;;;;;470580;249;29320;-70
2021/09/11 05:08:00;;;;;;;6.13;5.53;;;16.70;99.90;;;;;;482488;246;29950;-71
2021/09/11 05:10:01;;;;;;;4.80;4.40;;;16.70;99.90;;;;;;473544;249;29240;-71
2021/09/11 05:12:04;;;;;;;5.57;5.07;;;16.70;99.90;;;;;;480334;237;28647;-70
2021/09/11 05:14:04;;;;;;;5.50;4.87;;;16.70;99.90;;;;;;490802;242;28537;-69
2021/09/11 05:16:05;;;;;;;7.23;5.40;;;16.70;99.90;;;;;;483001;241;28811;-69
2021/09/11 05:18:06;;;;;;;6.07;5.43;;;16.60;99.90;;;;;;472966;246;28832;-70
2021/09/11 05:20:07;;;;;;;5.63;5.13;;;16.70;99.90;;;;;;473789;249;28805;-69
2021/09/11 05:22:09;;;;;;;5.90;5.33;;;16.70;99.90;;;;;;474157;250;28828;-70
2021/09/11 05:24:10;;;;;;;5.53;5.03;;;16.70;99.90;;;;;;474622;250;28834;-70
2021/09/11 05:26:11;;;;;;;5.50;5.00;;;16.70;99.90;;;;;;474099;250;28965;-70
2021/09/11 05:28:12;;;;;;;5.70;5.20;;;16.70;99.90;;;;;;473840;249;29423;-70
2021/09/11 05:30:15;;;;;;;6.57;5.87;;;16.70;99.90;;;;;;480421;245;29290;-70
2021/09/11 05:32:15;;;;;;;8.30;6.07;;;16.70;99.90;;;;;;468349;253;29353;-69
2021/09/11 05:34:16;;;;;;;5.40;4.90;;;16.70;99.90;;;;;;468445;254;29294;-70
2021/09/11 05:36:17;;;;;;;6.47;5.87;;;16.60;99.90;;;;;;468431;254;28744;-70
2021/09/11 05:38:19;;;;;;;7.00;5.10;;;16.60;99.90;;;;;;468385;254;28929;-69
2021/09/11 05:40:20;;;;;;;5.70;5.20;;;16.60;99.90;;;;;;468189;253;28946;-70
2021/09/11 05:42:21;;;;;;;6.80;5.50;;;16.70;99.90;;;;;;467880;254;28993;-70
2021/09/11 05:44:23;;;;;;;6.10;5.50;;;16.70;99.90;;;;;;470707;251;28987;-69
2021/09/11 05:46:24;;;;;;;6.47;5.87;;;16.70;99.90;;;;;;474450;247;28958;-70
2021/09/11 05:48:25;;;;;;;6.13;5.53;;;16.70;99.90;;;;;;473732;251;28754;-70
2021/09/11 05:50:26;;;;;;;6.10;5.50;;;16.70;99.90;;;;;;478376;245;29341;-69
2021/09/11 05:52:28;;;;;;;5.70;5.10;;;16.70;99.90;;;;;;475019;249;29385;-72
2021/09/11 05:54:29;;;;;;;6.00;5.40;;;16.70;99.90;;;;;;471292;249;29077;-72
2021/09/11 05:56:30;;;;;;;7.00;5.60;;;16.70;99.90;;;;;;467023;254;28828;-70
2021/09/11 05:58:31;;;;;;;6.07;5.47;;;16.80;99.90;;;;;;472858;249;28839;-71
2021/09/11 06:00:33;;;;;;;5.90;5.30;;;16.80;99.90;;;;;;472500;245;28945;-70
2021/09/11 06:02:34;;;;;;;6.80;5.70;;;16.80;99.90;;;;;;467988;251;29009;-70
2021/09/11 06:04:35;;;;;;;8.50;5.80;;;16.80;99.90;;;;;;474511;250;28855;-70
2021/09/11 06:06:36;;;;;;;6.20;5.60;;;16.80;99.90;;;;;;473003;250;28846;-70
2021/09/11 06:08:38;;;;;;;7.10;5.37;;;16.80;99.90;;;;;;473225;251;28945;-70
2021/09/11 06:10:39;;;;;;;7.73;6.50;;;16.80;99.90;;;;;;473419;251;29180;-70
2021/09/11 06:12:40;;;;;;;8.20;6.80;;;16.90;99.90;;;;;;474034;251;28812;-69
2021/09/11 06:14:41;;;;;;;6.30;5.70;;;16.90;99.90;;;;;;474008;251;29295;-69
2021/09/11 06:16:43;;;;;;;6.47;5.87;;;16.90;99.90;;;;;;473530;251;29303;-70
2021/09/11 06:18:44;;;;;;;6.97;6.13;;;17.00;99.90;;;;;;473216;251;29464;-70
2021/09/11 06:20:45;;;;;;;7.10;6.40;;;17.00;99.90;;;;;;474013;251;28823;-70
2021/09/11 06:22:46;;;;;;;6.77;5.93;;;17.10;99.90;;;;;;489207;236;28917;-70
2021/09/11 06:24:48;;;;;;;6.23;5.63;;;17.10;99.90;;;;;;488640;243;28808;-69
2021/09/11 06:26:49;;;;;;;7.67;6.50;;;17.20;99.90;;;;;;494373;240;28729;-70
2021/09/11 06:28:50;;;;;;;6.97;6.37;;;17.20;99.90;;;;;;496425;239;28836;-70
2021/09/11 06:30:51;;;;;;;6.83;5.93;;;17.20;99.90;;;;;;495350;240;28825;-70
2021/09/11 06:32:53;;;;;;;6.20;5.60;;;17.20;99.90;;;;;;490296;236;28841;-71
2021/09/11 06:34:54;;;;;;;6.23;5.63;;;17.30;99.90;;;;;;490377;241;28853;-72
2021/09/11 06:36:55;;;;;;;7.03;6.33;;;17.30;99.90;;;;;;490358;241;28891;-72
2021/09/11 06:38:56;;;;;;;7.10;6.07;;;17.20;99.90;;;;;;490337;241;29325;-69
2021/09/11 06:40:58;;;;;;;6.87;5.73;;;17.30;99.90;;;;;;490364;241;29316;-69
2021/09/11 06:42:59;;;;;;;7.00;6.30;;;17.30;99.90;;;;;;486715;236;29315;-71
2021/09/11 06:45:00;;;;;;;6.10;5.50;;;17.20;99.90;;;;;;487133;240;29462;-69
2021/09/11 06:47:01;;;;;;;6.53;5.93;;;17.30;99.90;;;;;;492372;240;28789;-69
2021/09/11 06:49:03;;;;;;;6.30;5.70;;;17.40;99.90;;;;;;494741;240;28807;-70
2021/09/11 06:51:04;;;;;;;6.73;6.10;;;17.40;99.90;;;;;;494800;240;28845;-71
2021/09/11 06:53:06;;;;;;;7.30;6.60;;;17.40;99.90;;;;;;485506;240;28867;-70
2021/09/11 06:55:06;;;;;;;7.97;6.23;;;17.40;99.90;;;;;;479573;245;28891;-72
2021/09/11 06:57:08;;;;;;;7.67;6.30;;;;;;;;;;476771;246;28745;-72
2021/09/11 06:59:12;;;;;;;7.37;6.40;;;;;;;;;;477420;248;27570;-72
2021/09/11 07:03:35;;;;;;;6.37;5.77;;;;;;;;;;490963;242;27403;-71
2021/09/11 07:05:37;;;;;;;6.90;5.40;;;;;;;;;;500935;237;27431;-72
2021/09/11 07:07:40;;;;;;;6.00;5.43;;;;;;;;;;501164;237;26345;-72
2021/09/11 07:09:42;;;;;;;9.03;7.70;;;;;;;;;;495027;237;26351;-71
2021/09/11 07:11:46;;;;;;;7.67;6.97;;;;;;;;;;489373;237;27521;-72
2021/09/11 07:13:48;;;;;;;8.43;7.33;;;;;;;;;;478056;246;26874;-71
2021/09/11 07:15:51;;;;;;;7.87;6.00;;;;;;;;;;474406;250;28201;-71
2021/09/11 07:17:55;;;;;;;7.70;6.70;;;;;;;;;;476981;246;26316;-71
2021/09/11 07:19:59;;;;;;;7.90;7.10;;;;;;;;;;475026;246;26386;-71
2021/09/11 07:22:02;;;;;;;7.47;6.60;;;;;;;;;;481722;236;26802;-71
2021/09/11 07:24:04;;;;;;;8.40;7.53;;;;;;;;;;489860;238;26385;-71
2021/09/11 07:26:08;;;;;;;8.00;7.10;;;;;;;;;;490901;239;27600;-72
2021/09/11 07:28:11;;;;;;;9.10;7.63;;;;;;;;;;477576;246;26720;-71
2021/09/11 07:30:12;;;;;;;7.87;6.47;;;17.40;99.90;;;;;;478357;246;26320;-71
2021/09/11 07:32:14;;;;;;;9.33;6.50;;;17.40;99.90;;;;;;484184;236;28886;-71
2021/09/11 07:34:15;;;;;;;7.37;6.23;;;17.50;99.90;;;;;;471727;246;28794;-71
2021/09/11 07:36:16;;;;;;;8.60;7.63;;;17.50;99.90;;;;;;476774;248;29402;-71
2021/09/11 07:38:17;;;;;;;7.57;6.87;;;17.50;99.90;;;;;;478325;248;30164;-70
2021/09/11 07:40:18;;;;;;;6.80;6.10;;;17.50;99.90;;;;;;476789;248;28968;-70
2021/09/11 07:42:20;;;;;;;10.10;7.53;;;17.50;99.90;;;;;;475549;241;29039;-69
2021/09/11 07:44:23;;;;;;;7.20;6.50;;;17.50;99.90;;;;;;471520;249;28911;-70
2021/09/11 07:46:22;;;;;;;7.73;6.83;;;17.60;99.90;;;;;;474747;246;29219;-69
2021/09/11 07:48:24;;;;;;;7.63;6.90;;;17.60;99.90;;;;;;469683;252;29384;-69
2021/09/11 07:50:28;;;;;;;6.93;6.23;;;17.50;99.90;;;;;;476136;247;28907;-69
2021/09/11 07:52:29;;;;;;;10.67;7.20;;;17.50;99.90;;;;;;476556;239;28823;-72
2021/09/11 07:54:31;;;;;;;11.20;7.30;;;;;;;;;;476327;248;28942;-71
2021/09/11 07:56:36;;;;;;;8.97;7.47;;;;;;;;;;475694;249;28712;-69
2021/09/11 07:58:40;;;;;;;8.87;7.37;;;;;;;;;;475686;249;27618;-71
2021/09/11 08:00:42;;;;;;;8.27;7.17;;;17.50;99.90;;;;;;475715;249;26368;-69
2021/09/11 08:02:45;;;;;;;9.40;7.87;;;;;;;;;;487977;236;27456;-69
2021/09/11 08:04:47;;;;;;;9.33;8.33;;;;;;;;;;475142;248;26388;-70
2021/09/11 08:06:49;;;;;;;17.10;8.77;;;;;;;;;;468215;252;27937;-72
2021/09/11 08:08:51;;;;;;;11.13;7.40;;;17.50;99.90;;;;;;484778;245;27413;-72
2021/09/11 08:10:53;;;;;;;15.30;8.87;;;;;;;;;;484813;244;27427;-72
2021/09/11 08:12:55;;;;;;;9.30;8.20;;;17.60;99.90;;;;;;472937;247;27654;-69
2021/09/11 08:14:58;;;;;;;11.30;8.63;;;17.60;99.90;;;;;;484180;244;28737;-70
2021/09/11 08:17:01;;;;;;;9.23;7.30;;;;;;;;;;481362;246;28779;-72
2021/09/11 08:19:01;;;;;;;9.00;7.37;;;;;;;;;;481057;246;27510;-71
2021/09/11 08:21:04;;;;;;;8.93;7.53;;;17.70;99.90;;;;;;481449;246;26302;-71
2021/09/11 08:23:04;;;;;;;9.30;8.00;;;17.70;99.90;;;;;;482025;236;28860;-70
2021/09/11 08:25:08;;;;;;;8.00;7.10;;;17.60;99.90;;;;;;475068;249;28947;-71
2021/09/11 08:27:07;;;;;;;10.10;8.00;;;17.80;99.90;;;;;;483338;245;28844;-71
2021/09/11 08:29:08;;;;;;;7.97;7.17;;;17.90;99.90;;;;;;492664;241;28838;-71
2021/09/11 08:31:09;;;;;;;8.53;7.63;;;18.00;99.90;;;;;;492717;241;28887;-71
2021/09/11 08:33:10;;;;;;;8.17;6.43;;;18.10;99.90;;;;;;487944;232;28773;-71
2021/09/11 08:35:13;;;;;;;6.67;5.97;;;18.40;99.90;;;;;;484222;242;28842;-71
2021/09/11 08:37:13;;;;;;;7.13;6.43;;;18.70;99.90;;;;;;487860;241;29334;-71
2021/09/11 08:39:15;;;;;;;7.13;6.40;;;18.90;99.90;;;;;;487056;244;28690;-70
2021/09/11 08:43:22;;;;;;;6.53;5.93;;;19.20;99.90;;;;;;470244;238;28892;-71
2021/09/11 08:45:23;;;;;;;8.80;5.93;;;19.20;99.90;;;;;;463266;252;28955;-72
2021/09/11 08:47:24;;;;;;;7.20;6.50;;;19.20;99.90;;;;;;467306;253;28972;-71
2021/09/11 08:49:25;;;;;;;6.43;5.77;;;19.10;99.90;;;;;;467257;254;28949;-71
2021/09/11 08:51:27;;;;;;;5.93;5.43;;;19.00;99.90;;;;;;473061;239;29363;-71
2021/09/11 08:53:28;;;;;;;5.37;4.87;;;18.90;99.90;;;;;;488571;241;29239;-71
2021/09/11 08:55:32;;;;;;;6.67;5.47;;;18.90;99.90;;;;;;488482;243;28818;-71
2021/09/11 08:57:33;;;;;;;5.87;5.27;;;18.80;99.90;;;;;;488207;243;29233;-71
2021/09/11 08:59:32;;;;;;;6.10;5.50;;;18.80;99.90;;;;;;488356;243;29226;-72
2021/09/11 09:01:33;;;;;;;5.17;4.63;;;18.70;99.90;;;;;;486664;238;29077;-71
2021/09/11 09:03:34;;;;;;;6.00;4.77;;;18.60;99.90;;;;;;466374;253;28923;-71
2021/09/11 09:05:36;;;;;;;6.23;5.63;;;18.60;99.90;;;;;;479896;248;28783;-71
2021/09/11 09:07:40;;;;;;;5.27;4.83;;;18.70;99.90;;;;;;489872;240;28659;-71
2021/09/11 09:09:38;;;;;;;5.70;4.70;;;18.70;99.90;;;;;;489521;241;28711;-71
2021/09/11 09:11:41;;;;;;;5.30;4.80;;;18.70;99.90;;;;;;484027;239;29576;-70
2021/09/11 09:13:41;;;;;;;4.97;4.53;;;18.70;99.90;;;;;;478830;247;28869;-71
2021/09/11 09:15:42;;;;;;;5.10;4.67;;;18.80;99.90;;;;;;483573;245;28949;-71
2021/09/11 09:17:43;;;;;;;4.60;4.20;;;18.70;99.90;;;;;;485929;240;29263;-70
2021/09/11 09:19:44;;;;;;;4.30;4.00;;;18.70;99.90;;;;;;479989;245;29314;-70
2021/09/11 09:21:46;;;;;;;5.20;4.70;;;18.60;99.90;;;;;;487318;239;29189;-71
2021/09/11 09:23:47;;;;;;;5.33;4.87;;;18.70;99.90;;;;;;481923;244;29276;-69
2021/09/11 09:25:48;;;;;;;4.87;4.47;;;18.70;99.90;;;;;;484779;243;28769;-69
2021/09/11 09:27:49;;;;;;;4.43;4.13;;;18.90;99.90;;;;;;487390;244;28743;-69
2021/09/11 09:29:51;;;;;;;4.83;4.43;;;19.00;99.90;;;;;;483752;245;28785;-71
2021/09/11 09:31:54;;;;;;;4.80;4.40;;;19.10;99.90;;;;;;494461;239;28805;-71
2021/09/11 09:33:54;;;;;;;5.13;4.63;;;19.20;99.90;;;;;;484888;245;28829;-70
2021/09/11 09:35:54;;;;;;;4.63;4.17;;;19.20;99.90;;;;;;484867;245;28961;-70
2021/09/11 09:37:56;;;;;;;5.00;4.47;;;19.40;99.90;;;;;;485037;245;28725;-70
2021/09/11 09:39:59;;;;;;;5.27;4.77;;;19.70;99.90;;;;;;484629;245;28767;-71
2021/09/11 09:41:58;;;;;;;4.37;3.97;;;19.50;99.90;;;;;;483344;241;29399;-71
2021/09/11 09:43:59;;;;;;;4.40;4.00;;;19.60;99.90;;;;;;480556;245;28858;-71
2021/09/11 09:46:01;;;;;;;4.37;3.97;;;19.50;99.90;;;;;;482706;245;28889;-70
2021/09/11 09:48:02;;;;;;;4.50;4.10;;;19.60;99.90;;;;;;482625;245;28841;-71
2021/09/11 09:50:03;;;;;;;4.60;4.20;;;19.40;99.90;;;;;;485415;245;28788;-70
2021/09/11 09:52:04;;;;;;;4.80;4.40;;;19.20;99.90;;;;;;480631;241;29443;-71
2021/09/11 09:54:06;;;;;;;4.10;3.70;;;19.10;99.90;;;;;;463031;257;29483;-71
2021/09/11 09:56:07;;;;;;;4.50;4.10;;;19.10;99.90;;;;;;463015;257;29433;-71
2021/09/11 09:58:08;;;;;;;4.27;3.87;;;19.20;99.90;;;;;;470319;253;30017;-72
2021/09/11 10:00:10;;;;;;;3.30;3.10;;;19.10;99.90;;;;;;471566;252;29423;-69
2021/09/11 10:02:11;;;;;;;4.00;3.57;;;19.20;99.90;;;;;;484024;236;28699;-70
2021/09/11 10:04:12;;;;;;;3.80;3.40;;;19.20;99.90;;;;;;501653;237;28659;-70
2021/09/11 10:06:13;;;;;;;3.67;3.37;;;19.30;99.90;;;;;;501645;237;28749;-71
2021/09/11 10:08:15;;;;;;;3.50;3.20;;;19.30;99.90;;;;;;501688;237;28702;-71
2021/09/11 10:10:16;;;;;;;4.20;3.83;;;19.40;99.90;;;;;;501671;237;28666;-71
2021/09/11 10:12:18;;;;;;;3.10;2.90;;;19.50;99.90;;;;;;490756;235;28883;-71
2021/09/11 10:14:19;;;;;;;3.20;2.90;;;19.40;99.90;;;;;;482957;246;28878;-71
2021/09/11 10:16:20;;;;;;;3.27;3.03;;;19.50;99.90;;;;;;471857;252;28746;-71
2021/09/11 10:18:21;;;;;;;3.10;2.90;;;19.60;99.90;;;;;;482945;246;28864;-71
2021/09/11 10:20:22;;;;;;;3.07;2.83;;;19.80;99.90;;;;;;472031;251;29121;-69
2021/09/11 10:22:25;;;;;;;3.40;3.10;;;19.90;99.90;;;;;;480960;240;29338;-71
2021/09/11 10:24:25;;;;;;;3.17;2.97;;;19.90;99.90;;;;;;476800;249;29427;-70
2021/09/11 10:26:26;;;;;;;3.03;2.80;;;20.00;99.90;;;;;;476858;249;28886;-71
2021/09/11 10:28:27;;;;;;;3.30;3.07;;;20.20;99.90;;;;;;476893;249;28914;-70
2021/09/11 10:30:28;;;;;;;4.00;3.43;;;20.40;99.90;;;;;;477225;246;28842;-71
2021/09/11 10:32:30;;;;;;;3.77;3.47;;;20.40;99.90;;;;;;481764;238;28888;-70
2021/09/11 10:34:31;;;;;;;3.50;3.10;;;20.40;99.90;;;;;;479535;243;28845;-71
2021/09/11 10:36:32;;;;;;;3.30;3.00;;;20.30;99.90;;;;;;476968;244;28816;-71
2021/09/11 10:38:33;;;;;;;3.30;3.07;;;20.20;99.90;;;;;;486849;244;28804;-72
2021/09/11 10:40:35;;;;;;;3.40;3.20;;;20.20;99.90;;;;;;487318;244;29228;-71
2021/09/11 10:42:36;;;;;;;3.70;3.40;;;20.20;99.90;;;;;;480260;232;29331;-71